Yorklyn, Delaware
Current Conditions -  °F | °C
As of 9:05 AM on Wednesday 26 Nov 2014 (Local Time) from KILG Reporting Station
Moderate Rain Moderate Rain  
Wind Chill: 32°   Ceiling: 1300
Heat Index: 40°   Visibility: 3mi
Dew Point: 37°   Wind: 14mph
Humidity: 89%   Direction: 30°NNE
Pressure: 30.1"   Gusts: NA
Location:  39.81°N, 75.67°W
Report Text: KILG 261405Z 03012KT 3SM RA BR BKN013 BKN019 OVC025 04/03 A3010 RMK AO2 P0003 T00440028
Loading
Personal Weather Stations






























Interactive Weather Map New forecast layout! Learn more

10-Day Weather Forecast

Advertisements
Track Severe Weather on mobile